Terminal Aerodrome Forecast
Issued by NWS

Home | Current Version | Previous Version | Text Only | Print | Product List | Glossary On
Versions: 1 2 3 4 5 6 7 8 9 10 11 12 13 14 15 16
000
FTUS43 KGRB 181500 AAA
TAFCWA
TAF AMD
KCWA 181538Z 1816/1912 12008KT P6SM OVC007
     FM181900 12005KT P6SM BKN012
     FM182100 14003KT P6SM SCT030
     FM190300 13003KT P6SM BKN020=

USA.gov is the U.S. government's official web portal to all federal, state and local government web resources and services.